sensor_id;sensor_type;location;lat;lon;timestamp;pressure;altitude;pressure_sealevel;temperature;humidity
74936;BME280;63501;55.570;37.488;2024-02-21T00:00:19;99694.00;;;23.55;14.07
74936;BME280;63501;55.570;37.488;2024-02-21T00:02:46;99688.38;;;23.55;15.04
74936;BME280;63501;55.570;37.488;2024-02-21T00:05:15;99689.94;;;23.56;15.20
74936;BME280;63501;55.570;37.488;2024-02-21T00:07:42;99686.31;;;23.55;14.28
74936;BME280;63501;55.570;37.488;2024-02-21T00:10:09;99680.69;;;23.55;14.06
74936;BME280;63501;55.570;37.488;2024-02-21T00:12:36;99677.88;;;23.55;14.90
74936;BME280;63501;55.570;37.488;2024-02-21T00:15:05;99670.16;;;23.56;14.37
74936;BME280;63501;55.570;37.488;2024-02-21T00:17:32;99677.88;;;23.55;14.16
74936;BME280;63501;55.570;37.488;2024-02-21T00:19:59;99675.81;;;23.56;15.09
74936;BME280;63501;55.570;37.488;2024-02-21T00:22:26;99676.59;;;23.56;14.23
74936;BME280;63501;55.570;37.488;2024-02-21T00:24:54;99673.00;;;23.56;14.08
74936;BME280;63501;55.570;37.488;2024-02-21T00:27:21;99684.28;;;23.56;14.86
74936;BME280;63501;55.570;37.488;2024-02-21T00:29:51;99674.25;;;23.55;14.21
74936;BME280;63501;55.570;37.488;2024-02-21T00:32:19;99669.38;;;23.55;15.13
74936;BME280;63501;55.570;37.488;2024-02-21T00:34:46;99675.03;;;23.55;14.87
74936;BME280;63501;55.570;37.488;2024-02-21T00:37:13;99681.47;;;23.56;14.69
74936;BME280;63501;55.570;37.488;2024-02-21T00:39:43;99677.06;;;23.55;14.87
74936;BME280;63501;55.570;37.488;2024-02-21T00:42:12;99671.72;;;23.57;14.60
74936;BME280;63501;55.570;37.488;2024-02-21T00:44:39;99672.22;;;23.55;15.11
74936;BME280;63501;55.570;37.488;2024-02-21T00:47:07;99664.53;;;23.56;15.03
74936;BME280;63501;55.570;37.488;2024-02-21T00:49:35;99660.44;;;23.57;15.18
74936;BME280;63501;55.570;37.488;2024-02-21T00:52:02;99661.25;;;23.57;14.80
74936;BME280;63501;55.570;37.488;2024-02-21T00:54:31;99654.03;;;23.56;14.78
74936;BME280;63501;55.570;37.488;2024-02-21T00:56:58;99650.41;;;23.56;14.33
74936;BME280;63501;55.570;37.488;2024-02-21T00:59:28;99653.25;;;23.56;15.15
74936;BME280;63501;55.570;37.488;2024-02-21T01:01:55;99649.97;;;23.57;14.33
74936;BME280;63501;55.570;37.488;2024-02-21T01:04:22;99641.94;;;23.56;14.17
74936;BME280;63501;55.570;37.488;2024-02-21T01:06:51;99642.72;;;23.56;14.89
74936;BME280;63501;55.570;37.488;2024-02-21T01:09:18;99642.72;;;23.56;15.05
74936;BME280;63501;55.570;37.488;2024-02-21T01:11:45;99636.31;;;23.56;14.93
74936;BME280;63501;55.570;37.488;2024-02-21T01:14:15;99639.44;;;23.58;14.63
74936;BME280;63501;55.570;37.488;2024-02-21T01:16:44;99639.91;;;23.56;14.31
74936;BME280;63501;55.570;37.488;2024-02-21T01:19:12;99637.88;;;23.57;14.95
74936;BME280;63501;55.570;37.488;2024-02-21T01:21:39;99642.28;;;23.58;14.56
74936;BME280;63501;55.570;37.488;2024-02-21T01:24:10;99638.69;;;23.57;15.01
74936;BME280;63501;55.570;37.488;2024-02-21T01:26:37;99641.50;;;23.57;14.65
74936;BME280;63501;55.570;37.488;2024-02-21T01:29:04;99632.22;;;23.57;14.47
74936;BME280;63501;55.570;37.488;2024-02-21T01:31:31;99638.69;;;23.57;14.71
74936;BME280;63501;55.570;37.488;2024-02-21T01:33:58;99622.50;;;23.58;14.00
74936;BME280;63501;55.570;37.488;2024-02-21T01:36:31;99627.38;;;23.57;15.03
74936;BME280;63501;55.570;37.488;2024-02-21T01:38:58;99625.34;;;23.58;14.55
74936;BME280;63501;55.570;37.488;2024-02-21T01:41:27;99621.75;;;23.57;14.16
74936;BME280;63501;55.570;37.488;2024-02-21T01:43:56;99615.28;;;23.57;14.88
74936;BME280;63501;55.570;37.488;2024-02-21T01:46:25;99619.69;;;23.58;15.08
74936;BME280;63501;55.570;37.488;2024-02-21T01:48:53;99615.28;;;23.57;14.93
74936;BME280;63501;55.570;37.488;2024-02-21T01:51:20;99611.22;;;23.58;14.63
74936;BME280;63501;55.570;37.488;2024-02-21T01:53:48;99611.22;;;23.58;14.93
74936;BME280;63501;55.570;37.488;2024-02-21T01:56:17;99608.41;;;23.58;15.05
74936;BME280;63501;55.570;37.488;2024-02-21T01:58:45;99605.59;;;23.58;13.98
74936;BME280;63501;55.570;37.488;2024-02-21T02:01:13;99614.06;;;23.58;14.23
74936;BME280;63501;55.570;37.488;2024-02-21T02:03:39;99602.75;;;23.58;14.94
74936;BME280;63501;55.570;37.488;2024-02-21T02:06:07;99599.16;;;23.57;13.93
74936;BME280;63501;55.570;37.488;2024-02-21T02:08:34;99599.94;;;23.58;14.25
74936;BME280;63501;55.570;37.488;2024-02-21T02:11:02;99598.34;;;23.57;14.95
74936;BME280;63501;55.570;37.488;2024-02-21T02:13:29;99599.16;;;23.57;13.77
74936;BME280;63501;55.570;37.488;2024-02-21T02:15:58;99587.06;;;23.57;14.84
74936;BME280;63501;55.570;37.488;2024-02-21T02:18:25;99595.84;;;23.59;13.96
74936;BME280;63501;55.570;37.488;2024-02-21T02:20:52;99588.66;;;23.58;14.03
74936;BME280;63501;55.570;37.488;2024-02-21T02:23:22;99589.44;;;23.58;13.95
74936;BME280;63501;55.570;37.488;2024-02-21T02:25:50;99587.38;;;23.59;14.61
74936;BME280;63501;55.570;37.488;2024-02-21T02:28:21;99593.03;;;23.59;14.95
74936;BME280;63501;55.570;37.488;2024-02-21T02:30:49;99589.44;;;23.58;14.49
74936;BME280;63501;55.570;37.488;2024-02-21T02:33:22;99584.56;;;23.59;14.84
74936;BME280;63501;55.570;37.488;2024-02-21T02:35:52;99589.44;;;23.58;14.51
74936;BME280;63501;55.570;37.488;2024-02-21T02:38:19;99585.81;;;23.58;14.00
74936;BME280;63501;55.570;37.488;2024-02-21T02:40:48;99592.25;;;23.58;15.09
74936;BME280;63501;55.570;37.488;2024-02-21T02:43:15;99588.16;;;23.59;14.38
74936;BME280;63501;55.570;37.488;2024-02-21T02:45:42;99592.25;;;23.58;14.92
74936;BME280;63501;55.570;37.488;2024-02-21T02:48:13;99587.38;;;23.59;14.65
74936;BME280;63501;55.570;37.488;2024-02-21T02:50:43;99590.22;;;23.59;14.70
74936;BME280;63501;55.570;37.488;2024-02-21T02:53:11;99588.16;;;23.59;14.95
74936;BME280;63501;55.570;37.488;2024-02-21T02:55:38;99590.97;;;23.59;13.99
74936;BME280;63501;55.570;37.488;2024-02-21T02:58:06;99598.19;;;23.60;14.91
74936;BME280;63501;55.570;37.488;2024-02-21T03:00:34;99595.38;;;23.60;14.46
74936;BME280;63501;55.570;37.488;2024-02-21T03:03:02;99594.59;;;23.60;15.05
74936;BME280;63501;55.570;37.488;2024-02-21T03:05:29;99593.81;;;23.59;14.27
74936;BME280;63501;55.570;37.488;2024-02-21T03:07:56;99598.19;;;23.60;13.88
74936;BME280;63501;55.570;37.488;2024-02-21T03:10:24;99591.75;;;23.60;14.97
74936;BME280;63501;55.570;37.488;2024-02-21T03:12:51;99586.13;;;23.60;15.07
74936;BME280;63501;55.570;37.488;2024-02-21T03:15:20;99586.91;;;23.60;14.96
74936;BME280;63501;55.570;37.488;2024-02-21T03:17:47;99580.47;;;23.60;14.64
74936;BME280;63501;55.570;37.488;2024-02-21T03:20:14;99578.13;;;23.58;14.68
74936;BME280;63501;55.570;37.488;2024-02-21T03:22:43;99574.84;;;23.60;14.94
74936;BME280;63501;55.570;37.488;2024-02-21T03:25:13;99580.47;;;23.60;14.99
74936;BME280;63501;55.570;37.488;2024-02-21T03:27:40;99568.41;;;23.59;14.94
74936;BME280;63501;55.570;37.488;2024-02-21T03:30:07;99575.59;;;23.60;14.61
74936;BME280;63501;55.570;37.488;2024-02-21T03:32:43;99575.59;;;23.60;15.10
74936;BME280;63501;55.570;37.488;2024-02-21T03:35:17;99579.22;;;23.61;15.09
74936;BME280;63501;55.570;37.488;2024-02-21T03:37:44;99572.00;;;23.60;15.02
74936;BME280;63501;55.570;37.488;2024-02-21T03:40:12;99577.66;;;23.60;14.47
74936;BME280;63501;55.570;37.488;2024-02-21T03:42:39;99569.19;;;23.60;15.04
74936;BME280;63501;55.570;37.488;2024-02-21T03:45:09;99569.19;;;23.60;14.95
74936;BME280;63501;55.570;37.488;2024-02-21T03:47:36;99572.00;;;23.60;14.76
74936;BME280;63501;55.570;37.488;2024-02-21T03:50:07;99579.69;;;23.59;14.99
74936;BME280;63501;55.570;37.488;2024-02-21T03:52:43;99569.19;;;23.60;14.95
74936;BME280;63501;55.570;37.488;2024-02-21T03:55:11;99580.47;;;23.60;13.96
74936;BME280;63501;55.570;37.488;2024-02-21T03:57:38;99581.25;;;23.60;15.02
74936;BME280;63501;55.570;37.488;2024-02-21T04:00:07;99536.09;;;23.27;13.92
74936;BME280;63501;55.570;37.488;2024-02-21T04:02:37;99582.03;;;23.61;14.64
74936;BME280;63501;55.570;37.488;2024-02-21T04:05:06;99588.47;;;23.61;14.98
74936;BME280;63501;55.570;37.488;2024-02-21T04:07:36;99576.38;;;23.61;14.84
74936;BME280;63501;55.570;37.488;2024-02-21T04:10:03;99576.38;;;23.61;14.47
74936;BME280;63501;55.570;37.488;2024-02-21T04:12:30;99580.00;;;23.61;14.40
74936;BME280;63501;55.570;37.488;2024-02-21T04:14:59;99576.38;;;23.61;14.94
74936;BME280;63501;55.570;37.488;2024-02-21T04:17:26;99582.03;;;23.61;14.64
74936;BME280;63501;55.570;37.488;2024-02-21T04:20:01;99582.03;;;23.61;14.85
74936;BME280;63501;55.570;37.488;2024-02-21T04:22:32;99578.44;;;23.60;14.80
74936;BME280;63501;55.570;37.488;2024-02-21T04:25:01;99580.00;;;23.61;14.39
74936;BME280;63501;55.570;37.488;2024-02-21T04:27:28;99583.59;;;23.62;15.15
74936;BME280;63501;55.570;37.488;2024-02-21T04:29:55;99581.25;;;23.60;14.42
74936;BME280;63501;55.570;37.488;2024-02-21T04:32:22;99584.84;;;23.61;15.17
74936;BME280;63501;55.570;37.488;2024-02-21T04:34:50;99593.31;;;23.61;14.66
74936;BME280;63501;55.570;37.488;2024-02-21T04:37:17;99593.31;;;23.61;14.78
74936;BME280;63501;55.570;37.488;2024-02-21T04:39:45;99589.22;;;23.62;14.17
74936;BME280;63501;55.570;37.488;2024-02-21T04:42:12;99592.06;;;23.62;15.04
74936;BME280;63501;55.570;37.488;2024-02-21T04:44:42;99586.41;;;23.62;14.80
74936;BME280;63501;55.570;37.488;2024-02-21T04:47:09;99588.03;;;23.63;15.15
74936;BME280;63501;55.570;37.488;2024-02-21T04:49:37;99596.50;;;23.63;14.78
74936;BME280;63501;55.570;37.488;2024-02-21T04:52:05;99590.84;;;23.63;15.22
74936;BME280;63501;55.570;37.488;2024-02-21T04:54:33;99594.88;;;23.62;14.53
74936;BME280;63501;55.570;37.488;2024-02-21T04:57:03;99597.28;;;23.63;15.16
74936;BME280;63501;55.570;37.488;2024-02-21T04:59:35;99597.69;;;23.62;15.17
74936;BME280;63501;55.570;37.488;2024-02-21T05:02:18;99595.69;;;23.62;14.60
74936;BME280;63501;55.570;37.488;2024-02-21T05:07:57;99589.22;;;23.62;14.58
74936;BME280;63501;55.570;37.488;2024-02-21T05:10:45;99594.47;;;23.63;15.25
74936;BME280;63501;55.570;37.488;2024-02-21T05:13:13;99588.47;;;23.61;15.18
74936;BME280;63501;55.570;37.488;2024-02-21T05:15:41;99596.50;;;23.63;14.80
74936;BME280;63501;55.570;37.488;2024-02-21T05:18:12;99589.22;;;23.62;15.10
74936;BME280;63501;55.570;37.488;2024-02-21T05:20:50;99584.41;;;23.62;14.84
74936;BME280;63501;55.570;37.488;2024-02-21T05:23:19;99583.59;;;23.62;14.14
74936;BME280;63501;55.570;37.488;2024-02-21T05:25:55;99583.59;;;23.62;15.19
74936;BME280;63501;55.570;37.488;2024-02-21T05:28:24;99592.06;;;23.62;14.79
74936;BME280;63501;55.570;37.488;2024-02-21T05:30:54;99595.69;;;23.62;14.95
74936;BME280;63501;55.570;37.488;2024-02-21T05:33:23;99586.41;;;23.62;14.93
74936;BME280;63501;55.570;37.488;2024-02-21T05:35:50;99587.69;;;23.61;14.83
74936;BME280;63501;55.570;37.488;2024-02-21T05:38:17;99583.59;;;23.62;15.08
74936;BME280;63501;55.570;37.488;2024-02-21T05:40:45;99585.22;;;23.63;14.74
74936;BME280;63501;55.570;37.488;2024-02-21T05:43:12;99579.56;;;23.63;14.90
74936;BME280;63501;55.570;37.488;2024-02-21T05:45:40;99591.63;;;23.63;14.54
74936;BME280;63501;55.570;37.488;2024-02-21T05:48:08;99583.94;;;23.64;14.16
74936;BME280;63501;55.570;37.488;2024-02-21T05:50:35;99587.53;;;23.64;15.16
74936;BME280;63501;55.570;37.488;2024-02-21T05:53:03;99587.53;;;23.64;14.88
74936;BME280;63501;55.570;37.488;2024-02-21T05:55:30;99584.72;;;23.64;14.39
74936;BME280;63501;55.570;37.488;2024-02-21T05:57:57;99582.69;;;23.65;14.79
74936;BME280;63501;55.570;37.488;2024-02-21T06:00:24;99583.47;;;23.65;15.18
74936;BME280;63501;55.570;37.488;2024-02-21T06:02:53;99583.47;;;23.65;14.84
74936;BME280;63501;55.570;37.488;2024-02-21T06:05:20;99586.28;;;23.65;15.27
74936;BME280;63501;55.570;37.488;2024-02-21T06:07:53;99588.31;;;23.65;14.15
74936;BME280;63501;55.570;37.488;2024-02-21T06:10:33;99587.84;;;23.66;14.10
74936;BME280;63501;55.570;37.488;2024-02-21T06:13:05;99579.84;;;23.65;15.18
74936;BME280;63501;55.570;37.488;2024-02-21T06:15:35;99583.47;;;23.65;14.94
74936;BME280;63501;55.570;37.488;2024-02-21T06:18:06;99586.28;;;23.65;15.04
74936;BME280;63501;55.570;37.488;2024-02-21T06:20:33;99583.47;;;23.65;15.19
74936;BME280;63501;55.570;37.488;2024-02-21T06:23:01;99589.88;;;23.66;14.36
74936;BME280;63501;55.570;37.488;2024-02-21T06:25:28;99580.63;;;23.65;15.14
74936;BME280;63501;55.570;37.488;2024-02-21T06:28:12;99585.78;;;23.67;15.21
74936;BME280;63501;55.570;37.488;2024-02-21T06:30:41;99589.88;;;23.66;15.31
74936;BME280;63501;55.570;37.488;2024-02-21T06:33:14;99594.25;;;23.67;14.70
74936;BME280;63501;55.570;37.488;2024-02-21T06:35:41;99597.09;;;23.67;15.07
74936;BME280;63501;55.570;37.488;2024-02-21T06:38:11;99594.75;;;23.65;14.83
74936;BME280;63501;55.570;37.488;2024-02-21T06:40:43;99593.47;;;23.66;15.14
74936;BME280;63501;55.570;37.488;2024-02-21T06:43:16;99582.19;;;23.66;14.82
74936;BME280;63501;55.570;37.488;2024-02-21T06:45:49;99582.97;;;23.67;14.87
74936;BME280;63501;55.570;37.488;2024-02-21T06:48:19;99591.44;;;23.67;15.21
74936;BME280;63501;55.570;37.488;2024-02-21T06:50:49;99594.25;;;23.67;15.19
74936;BME280;63501;55.570;37.488;2024-02-21T06:53:18;99588.63;;;23.67;14.89
74936;BME280;63501;55.570;37.488;2024-02-21T06:55:46;99591.44;;;23.67;15.31
74936;BME280;63501;55.570;37.488;2024-02-21T06:58:15;99582.97;;;23.67;15.17
74936;BME280;63501;55.570;37.488;2024-02-21T07:00:42;99591.75;;;23.69;14.49
74936;BME280;63501;55.570;37.488;2024-02-21T07:03:15;99585.34;;;23.68;14.97
74936;BME280;63501;55.570;37.488;2024-02-21T07:05:44;99586.91;;;23.69;15.31
74936;BME280;63501;55.570;37.488;2024-02-21T07:08:12;99579.69;;;23.68;14.85
74936;BME280;63501;55.570;37.488;2024-02-21T07:10:39;99577.66;;;23.69;14.68
74936;BME280;63501;55.570;37.488;2024-02-21T07:13:07;99579.22;;;23.70;14.96
74936;BME280;63501;55.570;37.488;2024-02-21T07:15:34;99582.03;;;23.70;14.46
74936;BME280;63501;55.570;37.488;2024-02-21T07:18:04;99580.75;;;23.71;14.48
74936;BME280;63501;55.570;37.488;2024-02-21T07:20:45;99569.47;;;23.71;15.18
74936;BME280;63501;55.570;37.488;2024-02-21T07:23:12;99570.25;;;23.71;14.50
74936;BME280;63501;55.570;37.488;2024-02-21T07:25:50;99573.06;;;23.71;14.59
74936;BME280;63501;55.570;37.488;2024-02-21T07:28:17;99571.81;;;23.72;15.24
74936;BME280;63501;55.570;37.488;2024-02-21T07:30:47;99569.75;;;23.73;15.29
74936;BME280;63501;55.570;37.488;2024-02-21T07:33:14;99567.72;;;23.73;14.99
74936;BME280;63501;55.570;37.488;2024-02-21T07:35:43;99568.53;;;23.74;15.08
74936;BME280;63501;55.570;37.488;2024-02-21T07:38:12;99569.31;;;23.74;14.82
74936;BME280;63501;55.570;37.488;2024-02-21T07:40:41;99570.88;;;23.75;15.13
74936;BME280;63501;55.570;37.488;2024-02-21T07:43:09;99562.41;;;23.75;15.37
74936;BME280;63501;55.570;37.488;2024-02-21T07:45:36;99567.25;;;23.75;14.60
74936;BME280;63501;55.570;37.488;2024-02-21T07:48:05;99568.81;;;23.76;14.45
74936;BME280;63501;55.570;37.488;2024-02-21T07:50:32;99571.63;;;23.76;14.92
74936;BME280;63501;55.570;37.488;2024-02-21T07:53:00;99569.09;;;23.78;15.29
74936;BME280;63501;55.570;37.488;2024-02-21T07:55:28;99569.88;;;23.79;14.41
74936;BME280;63501;55.570;37.488;2024-02-21T07:57:55;99568.34;;;23.78;15.27
74936;BME280;63501;55.570;37.488;2024-02-21T08:00:24;99557.03;;;23.78;14.42
74936;BME280;63501;55.570;37.488;2024-02-21T08:02:52;99563.47;;;23.78;14.88
74936;BME280;63501;55.570;37.488;2024-02-21T08:05:21;99567.56;;;23.77;14.59
74936;BME280;63501;55.570;37.488;2024-02-21T08:07:48;99570.66;;;23.79;15.06
74936;BME280;63501;55.570;37.488;2024-02-21T08:10:17;99567.84;;;23.79;15.26
74936;BME280;63501;55.570;37.488;2024-02-21T08:12:50;99557.38;;;23.80;14.95
74936;BME280;63501;55.570;37.488;2024-02-21T08:15:22;99557.38;;;23.80;14.29
74936;BME280;63501;55.570;37.488;2024-02-21T08:17:55;99554.53;;;23.80;15.18
74936;BME280;63501;55.570;37.488;2024-02-21T08:20:26;99556.88;;;23.81;14.91
74936;BME280;63501;55.570;37.488;2024-02-21T08:22:56;99561.75;;;23.81;14.46
74936;BME280;63501;55.570;37.488;2024-02-21T08:25:26;99548.88;;;23.80;15.04
74936;BME280;63501;55.570;37.488;2024-02-21T08:27:58;99559.38;;;23.79;14.60
74936;BME280;63501;55.570;37.488;2024-02-21T08:30:26;99563.00;;;23.80;14.60
74936;BME280;63501;55.570;37.488;2024-02-21T08:32:55;99559.38;;;23.79;14.60
74936;BME280;63501;55.570;37.488;2024-02-21T08:35:22;99565.03;;;23.79;14.62
74936;BME280;63501;55.570;37.488;2024-02-21T08:37:49;99565.03;;;23.79;14.72
74936;BME280;63501;55.570;37.488;2024-02-21T08:40:19;99565.03;;;23.79;14.46
74936;BME280;63501;55.570;37.488;2024-02-21T08:42:49;99564.25;;;23.79;15.22
74936;BME280;63501;55.570;37.488;2024-02-21T08:45:17;99567.06;;;23.79;15.29
74936;BME280;63501;55.570;37.488;2024-02-21T08:47:45;99561.41;;;23.79;15.15
74936;BME280;63501;55.570;37.488;2024-02-21T08:50:12;99552.16;;;23.78;15.10
74936;BME280;63501;55.570;37.488;2024-02-21T08:52:46;99559.38;;;23.79;14.59
74936;BME280;63501;55.570;37.488;2024-02-21T08:55:13;99559.38;;;23.79;15.04
74936;BME280;63501;55.570;37.488;2024-02-21T08:57:41;99553.72;;;23.79;15.27
74936;BME280;63501;55.570;37.488;2024-02-21T09:00:12;99553.28;;;23.81;14.46
74936;BME280;63501;55.570;37.488;2024-02-21T09:02:41;99554.53;;;23.80;14.42
74936;BME280;63501;55.570;37.488;2024-02-21T09:05:09;99544.81;;;23.81;15.13
74936;BME280;63501;55.570;37.488;2024-02-21T09:07:36;99547.63;;;23.81;15.07
74936;BME280;63501;55.570;37.488;2024-02-21T09:12:49;99542.75;;;23.81;14.91
74936;BME280;63501;55.570;37.488;2024-02-21T09:15:20;99540.72;;;23.82;14.75
74936;BME280;63501;55.570;37.488;2024-02-21T09:17:52;99533.03;;;23.82;14.57
74936;BME280;63501;55.570;37.488;2024-02-21T09:20:19;99530.97;;;23.83;14.60
74936;BME280;63501;55.570;37.488;2024-02-21T09:22:48;99537.41;;;23.83;14.97
74936;BME280;63501;55.570;37.488;2024-02-21T09:25:15;99530.97;;;23.83;15.04
74936;BME280;63501;55.570;37.488;2024-02-21T09:27:54;99530.50;;;23.84;15.21
74936;BME280;63501;55.570;37.488;2024-02-21T09:30:23;99532.06;;;23.85;14.82
74936;BME280;63501;55.570;37.488;2024-02-21T09:32:58;99532.06;;;23.85;14.70
74936;BME280;63501;55.570;37.488;2024-02-21T09:35:30;99525.16;;;23.86;15.35
74936;BME280;63501;55.570;37.488;2024-02-21T09:37:59;99518.72;;;23.86;15.33
74936;BME280;63501;55.570;37.488;2024-02-21T09:40:27;99521.56;;;23.86;14.27
74936;BME280;63501;55.570;37.488;2024-02-21T09:43:01;99520.28;;;23.87;14.62
74936;BME280;63501;55.570;37.488;2024-02-21T09:45:29;99525.94;;;23.87;15.13
74936;BME280;63501;55.570;37.488;2024-02-21T09:50:45;99521.84;;;23.88;15.18
74936;BME280;63501;55.570;37.488;2024-02-21T09:53:21;99518.25;;;23.87;14.53
74936;BME280;63501;55.570;37.488;2024-02-21T09:55:58;99515.41;;;23.87;14.53
74936;BME280;63501;55.570;37.488;2024-02-21T09:58:39;99506.94;;;23.87;15.38
74936;BME280;63501;55.570;37.488;2024-02-21T10:01:10;99510.56;;;23.88;15.41
74936;BME280;63501;55.570;37.488;2024-02-21T10:03:40;99507.72;;;23.88;14.54
74936;BME280;63501;55.570;37.488;2024-02-21T10:06:10;99516.97;;;23.88;14.65
74936;BME280;63501;55.570;37.488;2024-02-21T10:08:37;99516.19;;;23.88;14.55
74936;BME280;63501;55.570;37.488;2024-02-21T10:11:04;99504.13;;;23.87;15.44
74936;BME280;63501;55.570;37.488;2024-02-21T10:13:37;99517.47;;;23.87;15.25
74936;BME280;63501;55.570;37.488;2024-02-21T10:16:05;99515.41;;;23.87;14.64
74936;BME280;63501;55.570;37.488;2024-02-21T10:18:32;99511.81;;;23.87;14.78
74936;BME280;63501;55.570;37.488;2024-02-21T10:21:00;99512.59;;;23.87;14.58
74936;BME280;63501;55.570;37.488;2024-02-21T10:23:29;99511.03;;;23.86;14.57
74936;BME280;63501;55.570;37.488;2024-02-21T10:26:04;99513.88;;;23.86;14.58
74936;BME280;63501;55.570;37.488;2024-02-21T10:28:32;99513.88;;;23.86;14.63
74936;BME280;63501;55.570;37.488;2024-02-21T10:30:59;99508.22;;;23.86;14.93
74936;BME280;63501;55.570;37.488;2024-02-21T10:33:29;99506.66;;;23.85;14.97
74936;BME280;63501;55.570;37.488;2024-02-21T10:36:06;99517.16;;;23.85;14.59
74936;BME280;63501;55.570;37.488;2024-02-21T10:38:36;99510.25;;;23.86;15.37
74936;BME280;63501;55.570;37.488;2024-02-21T10:41:04;99512.31;;;23.85;15.57
74936;BME280;63501;55.570;37.488;2024-02-21T10:43:33;99513.09;;;23.86;14.69
74936;BME280;63501;55.570;37.488;2024-02-21T10:46:04;99503.03;;;23.85;14.70
74936;BME280;63501;55.570;37.488;2024-02-21T10:48:33;99505.06;;;23.84;15.53
74936;BME280;63501;55.570;37.488;2024-02-21T10:51:11;99501.47;;;23.84;15.57
74936;BME280;63501;55.570;37.488;2024-02-21T10:53:44;99506.66;;;23.85;15.48
74936;BME280;63501;55.570;37.488;2024-02-21T10:56:18;99502.25;;;23.84;15.21
74936;BME280;63501;55.570;37.488;2024-02-21T10:58:50;99505.84;;;23.85;14.59
74936;BME280;63501;55.570;37.488;2024-02-21T11:01:18;99498.66;;;23.84;15.30
74936;BME280;63501;55.570;37.488;2024-02-21T11:03:49;99506.34;;;23.83;15.38
74936;BME280;63501;55.570;37.488;2024-02-21T11:06:17;99500.22;;;23.85;15.02
74936;BME280;63501;55.570;37.488;2024-02-21T11:08:50;99491.75;;;23.85;15.03
74936;BME280;63501;55.570;37.488;2024-02-21T11:11:31;99494.56;;;23.85;14.55
74936;BME280;63501;55.570;37.488;2024-02-21T11:14:06;99486.09;;;23.85;14.72
74936;BME280;63501;55.570;37.488;2024-02-21T11:16:37;99486.09;;;23.85;14.80
74936;BME280;63501;55.570;37.488;2024-02-21T11:19:19;99482.50;;;23.84;15.20
74936;BME280;63501;55.570;37.488;2024-02-21T11:21:53;99483.25;;;23.85;14.73
74936;BME280;63501;55.570;37.488;2024-02-21T11:24:31;99480.44;;;23.85;15.13
74936;BME280;63501;55.570;37.488;2024-02-21T11:27:07;99478.44;;;23.85;15.17
74936;BME280;63501;55.570;37.488;2024-02-21T11:29:39;99478.44;;;23.85;15.37
74936;BME280;63501;55.570;37.488;2024-02-21T11:32:09;99478.44;;;23.85;15.17
74936;BME280;63501;55.570;37.488;2024-02-21T11:34:36;99471.97;;;23.85;14.62
74936;BME280;63501;55.570;37.488;2024-02-21T11:37:12;99475.28;;;23.83;15.15
74936;BME280;63501;55.570;37.488;2024-02-21T11:39:42;99469.63;;;23.83;15.51
74936;BME280;63501;55.570;37.488;2024-02-21T11:42:11;99476.84;;;23.84;15.33
74936;BME280;63501;55.570;37.488;2024-02-21T11:44:38;99465.53;;;23.84;15.27
74936;BME280;63501;55.570;37.488;2024-02-21T11:47:08;99475.28;;;23.83;15.19
74936;BME280;63501;55.570;37.488;2024-02-21T11:49:39;99466.81;;;23.83;14.47
74936;BME280;63501;55.570;37.488;2024-02-21T11:52:06;99464.00;;;23.83;14.57
74936;BME280;63501;55.570;37.488;2024-02-21T11:54:35;99468.09;;;23.82;14.70
74936;BME280;63501;55.570;37.488;2024-02-21T11:57:11;99462.44;;;23.82;14.90
74936;BME280;63501;55.570;37.488;2024-02-21T11:59:39;99467.31;;;23.82;14.98
74936;BME280;63501;55.570;37.488;2024-02-21T12:02:08;99462.16;;;23.80;15.19
74936;BME280;63501;55.570;37.488;2024-02-21T12:04:37;99460.88;;;23.81;15.28
74936;BME280;63501;55.570;37.488;2024-02-21T12:07:04;99465.75;;;23.81;14.64
74936;BME280;63501;55.570;37.488;2024-02-21T12:09:33;99462.16;;;23.80;15.06
74936;BME280;63501;55.570;37.488;2024-02-21T12:12:01;99462.59;;;23.79;15.04
74936;BME280;63501;55.570;37.488;2024-02-21T12:14:32;99461.06;;;23.78;14.82
74936;BME280;63501;55.570;37.488;2024-02-21T12:17:01;99463.38;;;23.79;14.88
74936;BME280;63501;55.570;37.488;2024-02-21T12:19:29;99454.63;;;23.77;15.32
74936;BME280;63501;55.570;37.488;2024-02-21T12:21:59;99469.03;;;23.79;15.27
74936;BME280;63501;55.570;37.488;2024-02-21T12:24:27;99460.56;;;23.79;15.21
74936;BME280;63501;55.570;37.488;2024-02-21T12:27:01;99457.75;;;23.79;14.67
74936;BME280;63501;55.570;37.488;2024-02-21T12:29:53;99448.97;;;23.77;15.21
74936;BME280;63501;55.570;37.488;2024-02-21T12:32:20;99451.03;;;23.77;15.33
74936;BME280;63501;55.570;37.488;2024-02-21T12:34:54;99448.97;;;23.77;15.55
74936;BME280;63501;55.570;37.488;2024-02-21T12:37:22;99451.03;;;23.77;15.05
74936;BME280;63501;55.570;37.488;2024-02-21T12:39:55;99445.38;;;23.77;15.11
74936;BME280;63501;55.570;37.488;2024-02-21T12:42:22;99448.97;;;23.77;15.00
74936;BME280;63501;55.570;37.488;2024-02-21T12:44:52;99441.78;;;23.76;15.54
74936;BME280;63501;55.570;37.488;2024-02-21T12:47:20;99444.59;;;23.76;14.72
74936;BME280;63501;55.570;37.488;2024-02-21T12:49:50;99441.78;;;23.76;15.22
74936;BME280;63501;55.570;37.488;2024-02-21T12:52:17;99434.56;;;23.75;15.40
74936;BME280;63501;55.570;37.488;2024-02-21T12:54:44;99435.34;;;23.75;15.31
74936;BME280;63501;55.570;37.488;2024-02-21T12:57:11;99423.28;;;23.75;15.67
74936;BME280;63501;55.570;37.488;2024-02-21T12:59:41;99443.03;;;23.75;14.44
74936;BME280;63501;55.570;37.488;2024-02-21T13:02:20;99433.03;;;23.74;15.31
74936;BME280;63501;55.570;37.488;2024-02-21T13:04:49;99435.84;;;23.74;15.31
74936;BME280;63501;55.570;37.488;2024-02-21T13:07:25;99439.44;;;23.74;14.61
74936;BME280;63501;55.570;37.488;2024-02-21T13:09:52;99438.66;;;23.74;15.41